sensor_id;sensor_type;location;lat;lon;timestamp;P1;durP1;ratioP1;P2;durP2;ratioP2
39694;SDS011;25367;-35.352;149.036;2023-11-22T00:00:52;1.52;;;0.70;;
39694;SDS011;25367;-35.352;149.036;2023-11-22T00:03:22;1.52;;;0.57;;
39694;SDS011;25367;-35.352;149.036;2023-11-22T00:05:51;1.73;;;0.73;;
39694;SDS011;25367;-35.352;149.036;2023-11-22T00:08:21;1.85;;;0.45;;
39694;SDS011;25367;-35.352;149.036;2023-11-22T00:10:50;1.48;;;0.57;;
39694;SDS011;25367;-35.352;149.036;2023-11-22T00:13:20;2.55;;;0.52;;
39694;SDS011;25367;-35.352;149.036;2023-11-22T00:15:51;4.70;;;0.63;;
39694;SDS011;25367;-35.352;149.036;2023-11-22T00:18:20;2.50;;;0.90;;
39694;SDS011;25367;-35.352;149.036;2023-11-22T00:20:50;1.42;;;0.63;;
39694;SDS011;25367;-35.352;149.036;2023-11-22T00:23:20;2.72;;;0.52;;
39694;SDS011;25367;-35.352;149.036;2023-11-22T00:25:49;3.00;;;0.68;;
39694;SDS011;25367;-35.352;149.036;2023-11-22T00:28:19;2.78;;;0.95;;
39694;SDS011;25367;-35.352;149.036;2023-11-22T00:30:51;1.77;;;0.70;;
39694;SDS011;25367;-35.352;149.036;2023-11-22T00:33:21;2.33;;;0.60;;
39694;SDS011;25367;-35.352;149.036;2023-11-22T00:35:51;3.78;;;0.75;;
39694;SDS011;25367;-35.352;149.036;2023-11-22T00:38:21;3.70;;;0.73;;
39694;SDS011;25367;-35.352;149.036;2023-11-22T00:40:50;3.08;;;0.52;;
39694;SDS011;25367;-35.352;149.036;2023-11-22T00:43:19;2.72;;;0.70;;
39694;SDS011;25367;-35.352;149.036;2023-11-22T00:45:52;1.20;;;0.57;;
39694;SDS011;25367;-35.352;149.036;2023-11-22T00:48:22;2.40;;;0.52;;
39694;SDS011;25367;-35.352;149.036;2023-11-22T00:50:51;2.85;;;0.52;;
39694;SDS011;25367;-35.352;149.036;2023-11-22T00:53:21;1.40;;;0.77;;
39694;SDS011;25367;-35.352;149.036;2023-11-22T00:55:50;5.72;;;0.52;;
39694;SDS011;25367;-35.352;149.036;2023-11-22T00:58:20;5.65;;;0.95;;
39694;SDS011;25367;-35.352;149.036;2023-11-22T01:00:51;1.58;;;0.40;;
39694;SDS011;25367;-35.352;149.036;2023-11-22T01:03:21;0.98;;;0.43;;
39694;SDS011;25367;-35.352;149.036;2023-11-22T01:05:50;1.48;;;0.43;;
39694;SDS011;25367;-35.352;149.036;2023-11-22T01:08:19;1.42;;;0.52;;
39694;SDS011;25367;-35.352;149.036;2023-11-22T01:10:49;1.40;;;0.50;;
39694;SDS011;25367;-35.352;149.036;2023-11-22T01:13:19;4.57;;;0.77;;
39694;SDS011;25367;-35.352;149.036;2023-11-22T01:15:48;1.13;;;0.30;;
39694;SDS011;25367;-35.352;149.036;2023-11-22T01:18:21;4.88;;;1.02;;
39694;SDS011;25367;-35.352;149.036;2023-11-22T01:20:50;8.18;;;0.77;;
39694;SDS011;25367;-35.352;149.036;2023-11-22T01:23:20;4.00;;;0.60;;
39694;SDS011;25367;-35.352;149.036;2023-11-22T01:25:49;1.42;;;0.52;;
39694;SDS011;25367;-35.352;149.036;2023-11-22T01:28:19;12.30;;;0.77;;
39694;SDS011;25367;-35.352;149.036;2023-11-22T01:30:49;8.20;;;0.75;;
39694;SDS011;25367;-35.352;149.036;2023-11-22T01:33:22;3.70;;;0.57;;
39694;SDS011;25367;-35.352;149.036;2023-11-22T01:35:51;5.22;;;0.82;;
39694;SDS011;25367;-35.352;149.036;2023-11-22T01:38:21;3.78;;;0.73;;
39694;SDS011;25367;-35.352;149.036;2023-11-22T01:40:51;3.40;;;0.85;;
39694;SDS011;25367;-35.352;149.036;2023-11-22T01:43:20;1.48;;;0.55;;
39694;SDS011;25367;-35.352;149.036;2023-11-22T01:46:00;0.40;;;0.30;;
39694;SDS011;25367;-35.352;149.036;2023-11-22T01:48:30;0.63;;;0.30;;
39694;SDS011;25367;-35.352;149.036;2023-11-22T01:51:00;5.20;;;0.65;;
39694;SDS011;25367;-35.352;149.036;2023-11-22T01:53:29;7.05;;;0.60;;
39694;SDS011;25367;-35.352;149.036;2023-11-22T01:56:00;12.88;;;0.60;;
39694;SDS011;25367;-35.352;149.036;2023-11-22T01:58:30;7.82;;;1.08;;
39694;SDS011;25367;-35.352;149.036;2023-11-22T02:01:02;2.72;;;0.50;;
39694;SDS011;25367;-35.352;149.036;2023-11-22T02:03:33;4.05;;;0.88;;
39694;SDS011;25367;-35.352;149.036;2023-11-22T02:06:03;5.00;;;0.75;;
39694;SDS011;25367;-35.352;149.036;2023-11-22T02:08:33;2.85;;;0.80;;
39694;SDS011;25367;-35.352;149.036;2023-11-22T02:11:02;9.48;;;1.00;;
39694;SDS011;25367;-35.352;149.036;2023-11-22T02:13:32;5.57;;;0.60;;
39694;SDS011;25367;-35.352;149.036;2023-11-22T02:16:04;12.23;;;0.95;;
39694;SDS011;25367;-35.352;149.036;2023-11-22T02:18:34;2.40;;;0.95;;
39694;SDS011;25367;-35.352;149.036;2023-11-22T02:21:05;3.63;;;0.60;;
39694;SDS011;25367;-35.352;149.036;2023-11-22T02:23:38;5.22;;;0.80;;
39694;SDS011;25367;-35.352;149.036;2023-11-22T02:26:08;3.63;;;0.70;;
39694;SDS011;25367;-35.352;149.036;2023-11-22T02:28:37;1.88;;;0.57;;
39694;SDS011;25367;-35.352;149.036;2023-11-22T02:31:06;4.30;;;0.93;;
39694;SDS011;25367;-35.352;149.036;2023-11-22T02:33:36;2.28;;;0.50;;
39694;SDS011;25367;-35.352;149.036;2023-11-22T02:36:06;6.68;;;1.45;;
39694;SDS011;25367;-35.352;149.036;2023-11-22T02:38:37;4.25;;;0.80;;
39694;SDS011;25367;-35.352;149.036;2023-11-22T02:41:07;1.70;;;0.60;;
39694;SDS011;25367;-35.352;149.036;2023-11-22T02:43:36;4.00;;;0.77;;
39694;SDS011;25367;-35.352;149.036;2023-11-22T02:46:06;1.55;;;0.50;;
39694;SDS011;25367;-35.352;149.036;2023-11-22T02:48:36;8.60;;;0.63;;
39694;SDS011;25367;-35.352;149.036;2023-11-22T02:51:06;2.78;;;0.40;;
39694;SDS011;25367;-35.352;149.036;2023-11-22T02:53:35;6.45;;;0.65;;
39694;SDS011;25367;-35.352;149.036;2023-11-22T02:56:07;8.50;;;0.47;;
39694;SDS011;25367;-35.352;149.036;2023-11-22T02:58:36;1.25;;;0.57;;
39694;SDS011;25367;-35.352;149.036;2023-11-22T03:01:06;2.95;;;0.52;;
39694;SDS011;25367;-35.352;149.036;2023-11-22T03:03:36;6.75;;;1.00;;
39694;SDS011;25367;-35.352;149.036;2023-11-22T03:06:05;1.58;;;0.80;;
39694;SDS011;25367;-35.352;149.036;2023-11-22T03:08:35;1.90;;;0.52;;
39694;SDS011;25367;-35.352;149.036;2023-11-22T03:11:06;11.10;;;0.95;;
39694;SDS011;25367;-35.352;149.036;2023-11-22T03:13:36;4.60;;;0.63;;
39694;SDS011;25367;-35.352;149.036;2023-11-22T03:16:05;9.93;;;1.23;;
39694;SDS011;25367;-35.352;149.036;2023-11-22T03:18:35;6.13;;;0.75;;
39694;SDS011;25367;-35.352;149.036;2023-11-22T03:21:04;11.68;;;0.80;;
39694;SDS011;25367;-35.352;149.036;2023-11-22T03:23:34;2.97;;;0.65;;
39694;SDS011;25367;-35.352;149.036;2023-11-22T03:26:06;2.00;;;0.82;;
39694;SDS011;25367;-35.352;149.036;2023-11-22T03:28:35;13.00;;;0.98;;
39694;SDS011;25367;-35.352;149.036;2023-11-22T03:31:07;4.90;;;0.70;;
39694;SDS011;25367;-35.352;149.036;2023-11-22T03:33:36;10.88;;;0.82;;
39694;SDS011;25367;-35.352;149.036;2023-11-22T03:36:06;7.22;;;0.70;;
39694;SDS011;25367;-35.352;149.036;2023-11-22T03:38:36;4.68;;;0.60;;
39694;SDS011;25367;-35.352;149.036;2023-11-22T03:41:08;6.07;;;0.65;;
39694;SDS011;25367;-35.352;149.036;2023-11-22T03:43:37;7.00;;;0.77;;
39694;SDS011;25367;-35.352;149.036;2023-11-22T03:46:07;3.85;;;0.63;;
39694;SDS011;25367;-35.352;149.036;2023-11-22T03:48:36;9.88;;;0.65;;
39694;SDS011;25367;-35.352;149.036;2023-11-22T03:51:06;3.35;;;0.60;;
39694;SDS011;25367;-35.352;149.036;2023-11-22T03:53:35;7.95;;;0.60;;
39694;SDS011;25367;-35.352;149.036;2023-11-22T03:56:05;8.52;;;0.70;;
39694;SDS011;25367;-35.352;149.036;2023-11-22T03:58:36;8.32;;;0.55;;
39694;SDS011;25367;-35.352;149.036;2023-11-22T04:01:07;2.70;;;0.68;;
39694;SDS011;25367;-35.352;149.036;2023-11-22T04:03:37;4.18;;;0.63;;
39694;SDS011;25367;-35.352;149.036;2023-11-22T04:06:06;4.55;;;0.50;;
39694;SDS011;25367;-35.352;149.036;2023-11-22T04:08:36;11.65;;;1.25;;
39694;SDS011;25367;-35.352;149.036;2023-11-22T04:11:05;1.70;;;0.80;;
39694;SDS011;25367;-35.352;149.036;2023-11-22T04:13:37;6.57;;;0.50;;
39694;SDS011;25367;-35.352;149.036;2023-11-22T04:16:07;2.63;;;0.95;;
39694;SDS011;25367;-35.352;149.036;2023-11-22T04:18:37;2.17;;;0.77;;
39694;SDS011;25367;-35.352;149.036;2023-11-22T04:21:07;5.53;;;0.47;;
39694;SDS011;25367;-35.352;149.036;2023-11-22T04:23:37;5.00;;;0.93;;
39694;SDS011;25367;-35.352;149.036;2023-11-22T04:26:08;2.25;;;0.80;;
39694;SDS011;25367;-35.352;149.036;2023-11-22T04:28:38;1.05;;;0.68;;
39694;SDS011;25367;-35.352;149.036;2023-11-22T04:31:07;4.00;;;0.55;;
39694;SDS011;25367;-35.352;149.036;2023-11-22T04:33:36;3.17;;;0.50;;
39694;SDS011;25367;-35.352;149.036;2023-11-22T04:36:06;1.92;;;0.68;;
39694;SDS011;25367;-35.352;149.036;2023-11-22T04:38:36;4.10;;;0.85;;
39694;SDS011;25367;-35.352;149.036;2023-11-22T04:41:05;6.72;;;0.60;;
39694;SDS011;25367;-35.352;149.036;2023-11-22T04:43:36;1.00;;;0.57;;
39694;SDS011;25367;-35.352;149.036;2023-11-22T04:46:06;1.30;;;0.50;;
39694;SDS011;25367;-35.352;149.036;2023-11-22T04:48:35;1.80;;;0.40;;
39694;SDS011;25367;-35.352;149.036;2023-11-22T04:51:05;0.43;;;0.38;;
39694;SDS011;25367;-35.352;149.036;2023-11-22T04:53:34;1.23;;;0.43;;
39694;SDS011;25367;-35.352;149.036;2023-11-22T04:56:04;3.65;;;0.70;;
39694;SDS011;25367;-35.352;149.036;2023-11-22T04:58:36;4.15;;;0.50;;
39694;SDS011;25367;-35.352;149.036;2023-11-22T05:01:05;5.65;;;0.70;;
39694;SDS011;25367;-35.352;149.036;2023-11-22T05:03:35;2.15;;;0.75;;
39694;SDS011;25367;-35.352;149.036;2023-11-22T05:06:05;0.88;;;0.40;;
39694;SDS011;25367;-35.352;149.036;2023-11-22T05:08:35;3.30;;;0.50;;
39694;SDS011;25367;-35.352;149.036;2023-11-22T05:11:05;23.92;;;2.17;;
39694;SDS011;25367;-35.352;149.036;2023-11-22T05:13:38;14.10;;;1.85;;
39694;SDS011;25367;-35.352;149.036;2023-11-22T05:18:35;10.75;;;1.58;;
39694;SDS011;25367;-35.352;149.036;2023-11-22T05:21:05;10.40;;;1.80;;
39694;SDS011;25367;-35.352;149.036;2023-11-22T05:23:34;8.68;;;0.90;;
39694;SDS011;25367;-35.352;149.036;2023-11-22T05:26:03;7.70;;;1.05;;
39694;SDS011;25367;-35.352;149.036;2023-11-22T05:28:33;5.22;;;0.60;;
39694;SDS011;25367;-35.352;149.036;2023-11-22T05:31:06;8.95;;;1.08;;
39694;SDS011;25367;-35.352;149.036;2023-11-22T05:33:35;3.95;;;0.80;;
39694;SDS011;25367;-35.352;149.036;2023-11-22T05:36:05;4.47;;;0.98;;
39694;SDS011;25367;-35.352;149.036;2023-11-22T05:38:35;3.25;;;0.57;;
39694;SDS011;25367;-35.352;149.036;2023-11-22T05:41:04;5.07;;;0.63;;
39694;SDS011;25367;-35.352;149.036;2023-11-22T05:43:34;4.35;;;0.65;;
39694;SDS011;25367;-35.352;149.036;2023-11-22T05:46:06;1.45;;;0.50;;
39694;SDS011;25367;-35.352;149.036;2023-11-22T05:48:36;8.77;;;0.90;;
39694;SDS011;25367;-35.352;149.036;2023-11-22T05:51:05;2.78;;;0.73;;
39694;SDS011;25367;-35.352;149.036;2023-11-22T05:53:35;3.67;;;0.70;;
39694;SDS011;25367;-35.352;149.036;2023-11-22T05:56:04;7.55;;;0.63;;
39694;SDS011;25367;-35.352;149.036;2023-11-22T05:58:34;2.08;;;0.40;;
39694;SDS011;25367;-35.352;149.036;2023-11-22T06:01:06;1.95;;;0.50;;
39694;SDS011;25367;-35.352;149.036;2023-11-22T06:03:36;3.75;;;0.80;;
39694;SDS011;25367;-35.352;149.036;2023-11-22T06:06:06;9.88;;;0.70;;
39694;SDS011;25367;-35.352;149.036;2023-11-22T06:08:36;5.15;;;0.75;;
39694;SDS011;25367;-35.352;149.036;2023-11-22T06:11:05;5.80;;;0.70;;
39694;SDS011;25367;-35.352;149.036;2023-11-22T06:13:35;1.33;;;0.73;;
39694;SDS011;25367;-35.352;149.036;2023-11-22T06:16:08;5.93;;;0.63;;
39694;SDS011;25367;-35.352;149.036;2023-11-22T06:18:37;1.63;;;0.55;;
39694;SDS011;25367;-35.352;149.036;2023-11-22T06:21:06;2.97;;;0.52;;
39694;SDS011;25367;-35.352;149.036;2023-11-22T06:23:37;3.60;;;0.85;;
39694;SDS011;25367;-35.352;149.036;2023-11-22T06:26:06;2.40;;;1.00;;
39694;SDS011;25367;-35.352;149.036;2023-11-22T06:28:36;3.42;;;0.60;;
39694;SDS011;25367;-35.352;149.036;2023-11-22T06:31:08;1.02;;;0.55;;
39694;SDS011;25367;-35.352;149.036;2023-11-22T06:33:38;2.15;;;0.70;;
39694;SDS011;25367;-35.352;149.036;2023-11-22T06:36:08;2.40;;;0.70;;
39694;SDS011;25367;-35.352;149.036;2023-11-22T06:38:37;1.52;;;0.50;;
39694;SDS011;25367;-35.352;149.036;2023-11-22T06:41:07;2.35;;;0.70;;
39694;SDS011;25367;-35.352;149.036;2023-11-22T06:43:36;6.82;;;0.73;;
39694;SDS011;25367;-35.352;149.036;2023-11-22T06:46:09;3.33;;;0.70;;
39694;SDS011;25367;-35.352;149.036;2023-11-22T06:48:38;5.45;;;0.77;;
39694;SDS011;25367;-35.352;149.036;2023-11-22T06:51:08;5.65;;;0.80;;
39694;SDS011;25367;-35.352;149.036;2023-11-22T06:53:37;8.13;;;1.20;;
39694;SDS011;25367;-35.352;149.036;2023-11-22T06:56:07;5.40;;;1.25;;
39694;SDS011;25367;-35.352;149.036;2023-11-22T06:58:37;6.43;;;1.63;;
39694;SDS011;25367;-35.352;149.036;2023-11-22T07:01:09;6.35;;;1.48;;
39694;SDS011;25367;-35.352;149.036;2023-11-22T07:03:38;3.63;;;1.60;;
39694;SDS011;25367;-35.352;149.036;2023-11-22T07:06:08;3.03;;;1.88;;
39694;SDS011;25367;-35.352;149.036;2023-11-22T07:08:38;3.63;;;1.70;;
39694;SDS011;25367;-35.352;149.036;2023-11-22T07:11:07;3.90;;;1.67;;
39694;SDS011;25367;-35.352;149.036;2023-11-22T08:21:15;13.10;;;2.90;;
39694;SDS011;25367;-35.352;149.036;2023-11-22T08:23:45;9.18;;;2.90;;
39694;SDS011;25367;-35.352;149.036;2023-11-22T08:26:15;15.93;;;3.30;;
39694;SDS011;25367;-35.352;149.036;2023-11-22T08:28:45;7.13;;;2.90;;
39694;SDS011;25367;-35.352;149.036;2023-11-22T08:31:14;8.65;;;3.10;;
39694;SDS011;25367;-35.352;149.036;2023-11-22T08:33:43;13.88;;;3.25;;
39694;SDS011;25367;-35.352;149.036;2023-11-22T08:36:16;8.07;;;3.10;;
39694;SDS011;25367;-35.352;149.036;2023-11-22T08:41:14;6.25;;;2.78;;
39694;SDS011;25367;-35.352;149.036;2023-11-22T08:43:43;10.80;;;3.10;;
39694;SDS011;25367;-35.352;149.036;2023-11-22T08:46:13;16.88;;;3.45;;
39694;SDS011;25367;-35.352;149.036;2023-11-22T08:48:42;5.75;;;2.83;;
39694;SDS011;25367;-35.352;149.036;2023-11-22T08:51:12;8.48;;;2.80;;
39694;SDS011;25367;-35.352;149.036;2023-11-22T08:53:44;9.07;;;3.17;;
39694;SDS011;25367;-35.352;149.036;2023-11-22T08:56:14;4.85;;;2.72;;
39694;SDS011;25367;-35.352;149.036;2023-11-22T08:58:44;4.28;;;2.30;;
39694;SDS011;25367;-35.352;149.036;2023-11-22T09:01:13;4.13;;;2.13;;
39694;SDS011;25367;-35.352;149.036;2023-11-22T09:03:43;7.00;;;2.50;;
39694;SDS011;25367;-35.352;149.036;2023-11-22T09:06:12;4.90;;;2.50;;
39694;SDS011;25367;-35.352;149.036;2023-11-22T09:08:45;5.20;;;2.35;;
39694;SDS011;25367;-35.352;149.036;2023-11-22T09:11:15;6.05;;;2.78;;
39694;SDS011;25367;-35.352;149.036;2023-11-22T09:13:44;4.43;;;2.50;;
39694;SDS011;25367;-35.352;149.036;2023-11-22T09:16:13;5.63;;;2.67;;
39694;SDS011;25367;-35.352;149.036;2023-11-22T09:18:43;4.20;;;2.80;;
39694;SDS011;25367;-35.352;149.036;2023-11-22T09:21:13;6.25;;;2.80;;
39694;SDS011;25367;-35.352;149.036;2023-11-22T09:23:44;8.20;;;3.70;;
39694;SDS011;25367;-35.352;149.036;2023-11-22T09:26:14;6.22;;;2.53;;
39694;SDS011;25367;-35.352;149.036;2023-11-22T09:28:43;6.75;;;3.17;;
39694;SDS011;25367;-35.352;149.036;2023-11-22T20:22:45;3.22;;;1.90;;
39694;SDS011;25367;-35.352;149.036;2023-11-22T20:25:15;3.15;;;1.95;;
39694;SDS011;25367;-35.352;149.036;2023-11-22T20:27:44;3.15;;;1.67;;
39694;SDS011;25367;-35.352;149.036;2023-11-22T20:30:14;3.90;;;1.60;;
39694;SDS011;25367;-35.352;149.036;2023-11-22T20:32:43;4.43;;;2.00;;
39694;SDS011;25367;-35.352;149.036;2023-11-22T20:35:13;5.65;;;2.15;;
39694;SDS011;25367;-35.352;149.036;2023-11-22T20:37:45;2.53;;;1.60;;
39694;SDS011;25367;-35.352;149.036;2023-11-22T20:40:15;5.55;;;1.50;;
39694;SDS011;25367;-35.352;149.036;2023-11-22T20:42:44;2.33;;;1.40;;
39694;SDS011;25367;-35.352;149.036;2023-11-22T20:45:14;1.92;;;1.15;;
39694;SDS011;25367;-35.352;149.036;2023-11-22T20:47:43;4.13;;;1.83;;
39694;SDS011;25367;-35.352;149.036;2023-11-22T20:50:13;4.10;;;1.23;;
39694;SDS011;25367;-35.352;149.036;2023-11-22T20:52:45;4.40;;;1.60;;
39694;SDS011;25367;-35.352;149.036;2023-11-22T20:55:15;5.13;;;1.63;;
39694;SDS011;25367;-35.352;149.036;2023-11-22T20:57:44;3.63;;;1.13;;
39694;SDS011;25367;-35.352;149.036;2023-11-22T21:00:14;8.73;;;1.60;;
39694;SDS011;25367;-35.352;149.036;2023-11-22T21:02:44;2.70;;;1.20;;
39694;SDS011;25367;-35.352;149.036;2023-11-22T21:05:13;6.38;;;1.63;;
39694;SDS011;25367;-35.352;149.036;2023-11-22T21:07:46;7.10;;;1.17;;
39694;SDS011;25367;-35.352;149.036;2023-11-22T21:10:15;8.80;;;2.00;;
39694;SDS011;25367;-35.352;149.036;2023-11-22T21:12:45;2.10;;;1.20;;
39694;SDS011;25367;-35.352;149.036;2023-11-22T21:15:14;4.50;;;1.40;;
39694;SDS011;25367;-35.352;149.036;2023-11-22T21:17:44;2.15;;;1.05;;
39694;SDS011;25367;-35.352;149.036;2023-11-22T21:20:14;4.82;;;1.35;;
39694;SDS011;25367;-35.352;149.036;2023-11-22T21:22:46;4.75;;;1.20;;
39694;SDS011;25367;-35.352;149.036;2023-11-22T21:25:16;5.55;;;1.25;;
39694;SDS011;25367;-35.352;149.036;2023-11-22T21:27:46;2.63;;;1.27;;
39694;SDS011;25367;-35.352;149.036;2023-11-22T21:30:15;3.75;;;1.02;;
39694;SDS011;25367;-35.352;149.036;2023-11-22T21:32:46;3.40;;;1.35;;
39694;SDS011;25367;-35.352;149.036;2023-11-22T21:35:16;7.03;;;1.30;;
39694;SDS011;25367;-35.352;149.036;2023-11-22T21:37:48;8.23;;;1.23;;
39694;SDS011;25367;-35.352;149.036;2023-11-22T21:40:19;7.50;;;1.30;;
39694;SDS011;25367;-35.352;149.036;2023-11-22T21:42:49;3.83;;;1.58;;
39694;SDS011;25367;-35.352;149.036;2023-11-22T21:45:18;3.38;;;0.90;;
39694;SDS011;25367;-35.352;149.036;2023-11-22T21:47:48;2.50;;;1.30;;
39694;SDS011;25367;-35.352;149.036;2023-11-22T21:50:17;2.97;;;1.05;;
39694;SDS011;25367;-35.352;149.036;2023-11-22T21:52:48;4.35;;;1.02;;
39694;SDS011;25367;-35.352;149.036;2023-11-22T21:55:18;4.32;;;1.45;;
39694;SDS011;25367;-35.352;149.036;2023-11-22T21:57:47;3.78;;;1.10;;
39694;SDS011;25367;-35.352;149.036;2023-11-22T22:00:17;3.92;;;1.00;;
39694;SDS011;25367;-35.352;149.036;2023-11-22T22:02:46;4.80;;;0.93;;
39694;SDS011;25367;-35.352;149.036;2023-11-22T22:05:16;5.55;;;0.90;;
39694;SDS011;25367;-35.352;149.036;2023-11-22T22:07:45;5.97;;;1.00;;
39694;SDS011;25367;-35.352;149.036;2023-11-22T22:10:17;4.85;;;1.13;;
39694;SDS011;25367;-35.352;149.036;2023-11-22T22:12:46;2.70;;;1.08;;
39694;SDS011;25367;-35.352;149.036;2023-11-22T22:15:16;2.10;;;0.90;;
39694;SDS011;25367;-35.352;149.036;2023-11-22T22:17:46;2.83;;;0.70;;
39694;SDS011;25367;-35.352;149.036;2023-11-22T22:20:15;3.67;;;0.75;;
39694;SDS011;25367;-35.352;149.036;2023-11-22T22:22:45;3.13;;;1.08;;
39694;SDS011;25367;-35.352;149.036;2023-11-22T22:25:16;3.00;;;0.90;;
39694;SDS011;25367;-35.352;149.036;2023-11-22T22:27:46;3.58;;;1.13;;
39694;SDS011;25367;-35.352;149.036;2023-11-22T22:30:15;2.38;;;0.80;;
39694;SDS011;25367;-35.352;149.036;2023-11-22T22:32:44;2.22;;;1.02;;
39694;SDS011;25367;-35.352;149.036;2023-11-22T22:35:14;1.85;;;0.88;;
39694;SDS011;25367;-35.352;149.036;2023-11-22T22:37:43;3.20;;;1.20;;
39694;SDS011;25367;-35.352;149.036;2023-11-22T22:40:15;2.35;;;1.17;;
39694;SDS011;25367;-35.352;149.036;2023-11-22T22:42:44;1.15;;;0.60;;
39694;SDS011;25367;-35.352;149.036;2023-11-22T22:45:14;3.67;;;1.10;;
39694;SDS011;25367;-35.352;149.036;2023-11-22T22:47:43;3.75;;;0.80;;
39694;SDS011;25367;-35.352;149.036;2023-11-22T22:50:13;2.95;;;0.70;;
39694;SDS011;25367;-35.352;149.036;2023-11-22T22:52:44;5.05;;;1.15;;
39694;SDS011;25367;-35.352;149.036;2023-11-22T22:55:18;7.93;;;0.97;;
39694;SDS011;25367;-35.352;149.036;2023-11-22T22:57:48;3.03;;;0.90;;
39694;SDS011;25367;-35.352;149.036;2023-11-22T23:00:17;5.75;;;1.13;;
39694;SDS011;25367;-35.352;149.036;2023-11-22T23:02:47;8.27;;;1.10;;
39694;SDS011;25367;-35.352;149.036;2023-11-22T23:05:17;7.78;;;0.70;;
39694;SDS011;25367;-35.352;149.036;2023-11-22T23:07:46;7.55;;;0.82;;
39694;SDS011;25367;-35.352;149.036;2023-11-22T23:10:18;4.13;;;0.70;;
39694;SDS011;25367;-35.352;149.036;2023-11-22T23:12:48;1.15;;;0.60;;
39694;SDS011;25367;-35.352;149.036;2023-11-22T23:15:19;1.70;;;0.65;;
39694;SDS011;25367;-35.352;149.036;2023-11-22T23:17:48;4.80;;;0.75;;
39694;SDS011;25367;-35.352;149.036;2023-11-22T23:20:18;4.20;;;0.77;;
39694;SDS011;25367;-35.352;149.036;2023-11-22T23:22:47;1.60;;;0.65;;
39694;SDS011;25367;-35.352;149.036;2023-11-22T23:25:19;2.95;;;0.77;;
39694;SDS011;25367;-35.352;149.036;2023-11-22T23:27:48;1.58;;;1.23;;
39694;SDS011;25367;-35.352;149.036;2023-11-22T23:30:18;3.22;;;1.10;;
39694;SDS011;25367;-35.352;149.036;2023-11-22T23:32:47;3.80;;;0.98;;
39694;SDS011;25367;-35.352;149.036;2023-11-22T23:35:17;0.90;;;0.57;;
39694;SDS011;25367;-35.352;149.036;2023-11-22T23:37:46;2.33;;;1.13;;
39694;SDS011;25367;-35.352;149.036;2023-11-22T23:40:18;3.58;;;0.50;;
39694;SDS011;25367;-35.352;149.036;2023-11-22T23:42:48;2.78;;;0.75;;
39694;SDS011;25367;-35.352;149.036;2023-11-22T23:45:17;1.75;;;0.40;;
39694;SDS011;25367;-35.352;149.036;2023-11-22T23:47:47;4.20;;;1.23;;
39694;SDS011;25367;-35.352;149.036;2023-11-22T23:50:16;2.22;;;0.77;;
39694;SDS011;25367;-35.352;149.036;2023-11-22T23:52:46;2.92;;;0.63;;
39694;SDS011;25367;-35.352;149.036;2023-11-22T23:55:15;1.67;;;0.82;;
39694;SDS011;25367;-35.352;149.036;2023-11-22T23:57:47;0.88;;;0.45;;
